Oceanside 95 — WBC8822 — position and weather

sailwx.info

Track history (hours):
 
Tides and Currents Weather Stations Pressure Air Temp Water Temp Dewpoint Dewpoint Depression Visibility Wind Speed Wind Dir Waves Ship Positions

Oceanside 95

Owner: HELGRENS OCEANSIDE SPORTFISHING TRIPS IN, OCEANSIDE, CA. More information available from US FCC via Universal Licensing System and Coast Guard Vessel Documentation Center.

Last reported at 2018-Jun-19 17:30 UTC. Time now 2018-Jun-19 17:45 UTC.
Position N 33°11' W 117°23'.

Type: Wing in ground effect craft. MMSI: 367150450.

Date/timePositionNaut miles runAvg speedWind from/ knotsBaromVisibWave heightAir tempDewpointWater temp
2018-Jun-19 17:30N 33°11' W 117°23'1 1.2
2018-Jun-19 16:31N 33°12' W 117°23'0 1.8
2018-Jun-19 16:27N 33°12' W 117°24'0 0.3
2018-Jun-19 15:59N 33°12' W 117°24'0 0.0
2018-Jun-19 15:26N 33°12' W 117°24'0 0.0
2018-Jun-19 12:02N 33°12' W 117°24'0 0.0
2018-Jun-19 11:47N 33°12' W 117°24'0 0.0
2018-Jun-19 11:30N 33°12' W 117°24'0 0.0
2018-Jun-19 11:00N 33°12' W 117°24'0 0.0
2018-Jun-19 10:29N 33°12' W 117°24'0 0.0
2018-Jun-19 09:57N 33°12' W 117°24'0 0.0
2018-Jun-19 09:30N 33°12' W 117°24'0 0.0
2018-Jun-19 09:00N 33°12' W 117°24'0 0.0
2018-Jun-19 08:27N 33°12' W 117°24'0 0.0
2018-Jun-19 07:59N 33°12' W 117°24'0 0.0
2018-Jun-19 07:30N 33°12' W 117°24'0 0.0
2018-Jun-19 06:59N 33°12' W 117°24'0 0.0
2018-Jun-19 06:30N 33°12' W 117°24'0 0.0
2018-Jun-19 05:51N 33°12' W 117°24'0 0.0
2018-Jun-19 05:30N 33°12' W 117°24'0 0.0
2018-Jun-19 04:54N 33°12' W 117°24'0 0.0
2018-Jun-19 04:30N 33°12' W 117°24'0 0.0
2018-Jun-19 03:59N 33°12' W 117°24'0 0.0
2018-Jun-19 03:21N 33°12' W 117°24'0 0.0
2018-Jun-19 02:57N 33°12' W 117°24'0 0.0
2018-Jun-19 02:29N 33°12' W 117°24'0 0.0
2018-Jun-19 02:00N 33°12' W 117°24'0 0.0
2018-Jun-19 01:30N 33°12' W 117°24'0 0.0
2018-Jun-19 01:00N 33°12' W 117°24'0 0.0
2018-Jun-19 00:30N 33°12' W 117°24'0 0.0
2018-Jun-19 00:00N 33°12' W 117°24'0 0.0
2018-Jun-18 23:30N 33°12' W 117°24'0 0.0
2018-Jun-18 23:00N 33°12' W 117°24'0 0.0
2018-Jun-18 22:27N 33°12' W 117°24'0 0.0
2018-Jun-18 22:00N 33°12' W 117°24'0 0.0
2018-Jun-18 21:30N 33°12' W 117°24'0 0.0
2018-Jun-18 21:00N 33°12' W 117°24'0 0.0
2018-Jun-18 20:30N 33°12' W 117°24'0 0.0
2018-Jun-18 20:00N 33°12' W 117°24'0 0.0
2018-Jun-18 19:30N 33°12' W 117°24'0 0.0
2018-Jun-18 19:00N 33°12' W 117°24'0 0.0
2018-Jun-18 17:06N 33°12' W 117°24'0 0.0
2018-Jun-18 17:00N 33°12' W 117°24'0 0.0
2018-Jun-18 16:21N 33°12' W 117°24'0 0.0
2018-Jun-18 15:52N 33°12' W 117°24'0 0.0
2018-Jun-18 15:30N 33°12' W 117°24'0 0.0
2018-Jun-18 11:57N 33°12' W 117°24'0 0.0
2018-Jun-18 11:24N 33°12' W 117°24'0 0.0
2018-Jun-18 10:51N 33°12' W 117°24'0 0.0
2018-Jun-18 10:26N 33°12' W 117°24'0 0.0
2018-Jun-18 10:00N 33°12' W 117°24'0 0.0
2018-Jun-18 09:28N 33°12' W 117°24'0 0.0
2018-Jun-18 08:59N 33°12' W 117°24'0 0.0
2018-Jun-18 08:29N 33°12' W 117°24'0 0.0
2018-Jun-18 08:00N 33°12' W 117°24'0 0.0
2018-Jun-18 07:30N 33°12' W 117°24'0 0.0
2018-Jun-18 07:00N 33°12' W 117°24'0 0.0
2018-Jun-18 06:30N 33°12' W 117°24'0 0.0
2018-Jun-18 05:57N 33°12' W 117°24'0 0.0
2018-Jun-18 05:30N 33°12' W 117°24'0 0.0
2018-Jun-18 04:53N 33°12' W 117°24'0 0.0
2018-Jun-18 04:16N 33°12' W 117°24'0 0.0
2018-Jun-18 03:59N 33°12' W 117°24'0 0.0
2018-Jun-18 03:26N 33°12' W 117°24'0 0.0
2018-Jun-18 03:00N 33°12' W 117°24'0 0.0
2018-Jun-18 02:29N 33°12' W 117°24'0 0.0
2018-Jun-18 01:52N 33°12' W 117°24'0 0.0
2018-Jun-18 01:29N 33°12' W 117°24'0 0.0
2018-Jun-18 01:00N 33°12' W 117°24'0 0.0
2018-Jun-17 23:45N 33°12' W 117°24'0 0.6
2018-Jun-17 23:24N 33°12' W 117°23'2 5.6
2018-Jun-17 23:00N 33°10' W 117°23'5 9.8
2018-Jun-17 22:30N 33°06' W 117°20'3 5.2
2018-Jun-17 22:00N 33°03' W 117°19'0 0.0
2018-Jun-17 21:30N 33°03' W 117°19'0 0.6
2018-Jun-17 21:00N 33°04' W 117°19'0 0.0
2018-Jun-17 20:30N 33°04' W 117°19'0 0.0
2018-Jun-17 20:00N 33°04' W 117°19'0 0.0
2018-Jun-17 19:30N 33°04' W 117°19'3 5.3
2018-Jun-17 19:00N 33°06' W 117°21'4 8.5
2018-Jun-17 18:30N 33°10' W 117°23'3 2.9
2018-Jun-17 17:34N 33°12' W 117°23'0 1.6
2018-Jun-17 17:30N 33°12' W 117°24'0 0.0
2018-Jun-17 13:51N 33°12' W 117°24'0 0.4
2018-Jun-17 13:22N 33°12' W 117°23'0 0.0
2018-Jun-17 12:53N 33°12' W 117°23'0 1.2
2018-Jun-17 12:30N 33°12' W 117°24'4 8.2
2018-Jun-17 12:00N 33°09' W 117°25'4 8.0
2018-Jun-17 11:30N 33°05' W 117°27'4 8.0
2018-Jun-17 11:00N 33°01' W 117°29'4 7.9
2018-Jun-17 10:30N 32°58' W 117°31'4 7.8
2018-Jun-17 10:00N 32°54' W 117°33'4 7.3
2018-Jun-17 09:30N 32°51' W 117°35'4 7.0
2018-Jun-17 09:00N 32°48' W 117°37'4 7.0
2018-Jun-17 08:30N 32°45' W 117°39'4 6.9
2018-Jun-17 08:00N 32°42' W 117°41'3 6.9
2018-Jun-17 07:30N 32°38' W 117°42'8 7.1
2018-Jun-17 06:24N 32°31' W 117°45'11 7.2
2018-Jun-17 04:53N 32°21' W 117°50'3 7.1
2018-Jun-17 04:25N 32°18' W 117°52'4 2.7
2018-Jun-17 02:51N 32°15' W 117°55'1 2.0
2018-Jun-17 02:25N 32°14' W 117°54'4 1.7
2018-Jun-17 00:18N 32°17' W 117°51'1 1.6
2018-Jun-16 23:57N 32°17' W 117°51'0 0.7
2018-Jun-16 23:28N 32°16' W 117°50'0 0.3
2018-Jun-16 22:51N 32°17' W 117°50'8 2.7
2018-Jun-16 19:44N 32°16' W 117°40'7 4.3
2018-Jun-16 18:08N 32°23' W 117°39'1 5.2
2018-Jun-16 17:56N 32°23' W 117°41'4 3.5
2018-Jun-16 16:41N 32°27' W 117°42'1 1.3
2018-Jun-16 15:46N 32°27' W 117°40'1 3.0
2018-Jun-16 15:30N 32°27' W 117°41'6 3.9
2018-Jun-16 13:56N 32°21' W 117°40'11 2.0
2018-Jun-16 08:40N 32°32' W 117°38'2 6.9
2018-Jun-16 08:23N 32°34' W 117°38'3 6.8
2018-Jun-16 08:00N 32°36' W 117°37'4 7.5
2018-Jun-16 07:30N 32°40' W 117°35'4 7.7
2018-Jun-16 07:00N 32°43' W 117°34'4 7.7
2018-Jun-16 06:30N 32°47' W 117°32'4 8.1
2018-Jun-16 06:00N 32°51' W 117°31'5 9.7
2018-Jun-16 05:30N 32°55' W 117°29'5 9.7
2018-Jun-16 05:00N 33°00' W 117°28'5 9.8
2018-Jun-16 04:30N 33°05' W 117°27'5 9.3
2018-Jun-16 04:00N 33°09' W 117°25'3 6.8
2018-Jun-16 03:30N 33°12' W 117°24'0 0.1
2018-Jun-15 23:34N 33°12' W 117°23'0 0.0
2018-Jun-15 23:30N 33°12' W 117°23'0 0.4
2018-Jun-15 23:00N 33°12' W 117°24'0 0.0
2018-Jun-15 22:30N 33°12' W 117°24'0 0.0
2018-Jun-15 22:00N 33°12' W 117°24'0 0.0
2018-Jun-15 21:30N 33°12' W 117°24'0 0.0
2018-Jun-15 21:00N 33°12' W 117°24'0 0.0
2018-Jun-15 20:30N 33°12' W 117°24'0 0.0
2018-Jun-15 20:00N 33°12' W 117°24'0 0.0
2018-Jun-15 19:30N 33°12' W 117°24'0 0.0
2018-Jun-15 19:00N 33°12' W 117°24'0 0.0
2018-Jun-15 18:30N 33°12' W 117°24'0 0.0
2018-Jun-15 18:00N 33°12' W 117°24'0 0.0
2018-Jun-15 17:29N 33°12' W 117°24'0 0.0
2018-Jun-15 17:00N 33°12' W 117°24'0 0.0
2018-Jun-15 16:30N 33°12' W 117°24'0 0.0
2018-Jun-15 16:00N 33°12' W 117°24'0 0.0
2018-Jun-15 15:30N 33°12' W 117°24'0 0.0
2018-Jun-15 15:00N 33°12' W 117°24'0 0.0
2018-Jun-15 14:30N 33°12' W 117°24'0 0.0
2018-Jun-15 14:00N 33°12' W 117°24'0 0.0
2018-Jun-15 13:30N 33°12' W 117°24'0 0.0
2018-Jun-15 13:00N 33°12' W 117°24'0 0.0
2018-Jun-15 12:30N 33°12' W 117°24'0 0.0
2018-Jun-15 12:00N 33°12' W 117°24'0 0.0
2018-Jun-15 11:30N 33°12' W 117°24'0 0.0
2018-Jun-15 11:00N 33°12' W 117°24'0 0.0
2018-Jun-15 10:30N 33°12' W 117°24'0 0.0
2018-Jun-15 10:00N 33°12' W 117°24'0 0.0
2018-Jun-15 09:30N 33°12' W 117°24'0 0.0
2018-Jun-15 09:00N 33°12' W 117°24'0 0.0
2018-Jun-15 08:30N 33°12' W 117°24'0 0.0
2018-Jun-15 08:00N 33°12' W 117°24'0 0.0
2018-Jun-15 07:30N 33°12' W 117°24'0 0.0
2018-Jun-15 07:00N 33°12' W 117°24'0 0.0
2018-Jun-15 06:30N 33°12' W 117°24'0 0.0
2018-Jun-15 06:00N 33°12' W 117°24'0 0.0
2018-Jun-15 05:30N 33°12' W 117°24'0 0.0
2018-Jun-15 05:00N 33°12' W 117°24'0 0.0
2018-Jun-15 04:30N 33°12' W 117°24'0 0.0
2018-Jun-15 04:00N 33°12' W 117°24'0 0.0
2018-Jun-15 03:30N 33°12' W 117°24'0 0.0
2018-Jun-15 03:01N 33°12' W 117°24'0 0.0
2018-Jun-15 02:30N 33°12' W 117°24'0 0.0
2018-Jun-15 02:00N 33°12' W 117°24'0 0.0
2018-Jun-15 01:30N 33°12' W 117°24'0 0.0
2018-Jun-15 01:00N 33°12' W 117°24'0 0.0
2018-Jun-15 00:30N 33°12' W 117°24'0 0.0
2018-Jun-15 00:00N 33°12' W 117°24'0 0.0
2018-Jun-14 23:30N 33°12' W 117°24'0 0.0
2018-Jun-14 23:00N 33°12' W 117°24'0 0.0
2018-Jun-14 22:31N 33°12' W 117°24'0 0.0
2018-Jun-14 22:00N 33°12' W 117°24'0 0.0
2018-Jun-14 21:30N 33°12' W 117°24'0 0.0
2018-Jun-14 21:00N 33°12' W 117°24'0 0.0
2018-Jun-14 20:30N 33°12' W 117°24'0 0.0
2018-Jun-14 20:00N 33°12' W 117°24'0 0.0
2018-Jun-14 19:30N 33°12' W 117°24'0 0.0
2018-Jun-14 19:00N 33°12' W 117°24'0 0.0
2018-Jun-14 18:31N 33°12' W 117°24'0 0.0
2018-Jun-14 18:00N 33°12' W 117°24'0 0.0
2018-Jun-14 17:30N 33°12' W 117°24'0 0.0
2018-Jun-14 17:01N 33°12' W 117°24'0 0.0
2018-Jun-14 16:30N 33°12' W 117°24'0 0.0
2018-Jun-14 16:00N 33°12' W 117°24'0 0.0
2018-Jun-14 15:31N 33°12' W 117°24'0 0.0
2018-Jun-14 15:00N 33°12' W 117°24'0 0.0
2018-Jun-14 14:30N 33°12' W 117°24'0 0.0
2018-Jun-14 14:00N 33°12' W 117°24'0 0.0
2018-Jun-14 13:31N 33°12' W 117°24'0 0.0
2018-Jun-14 13:00N 33°12' W 117°24'0 0.0
2018-Jun-14 12:30N 33°12' W 117°24'0 0.0
2018-Jun-14 12:00N 33°12' W 117°24'0 0.0
2018-Jun-14 11:31N 33°12' W 117°24'0 0.0
2018-Jun-14 11:00N 33°12' W 117°24'0 0.0
2018-Jun-14 10:30N 33°12' W 117°24'0 0.0
2018-Jun-14 10:00N 33°12' W 117°24'0 0.0
2018-Jun-14 09:31N 33°12' W 117°24'0 0.0
2018-Jun-14 09:01N 33°12' W 117°24'0 0.0
2018-Jun-14 08:30N 33°12' W 117°24'0 0.0
2018-Jun-14 08:01N 33°12' W 117°24'0 0.0
2018-Jun-14 07:31N 33°12' W 117°24'0 0.0
2018-Jun-14 07:00N 33°12' W 117°24'0 0.0
2018-Jun-14 06:30N 33°12' W 117°24'0 0.0
2018-Jun-14 06:00N 33°12' W 117°24'0 0.0
2018-Jun-14 05:30N 33°12' W 117°24'0 0.0
2018-Jun-14 05:00N 33°12' W 117°24'0 0.0
2018-Jun-14 04:30N 33°12' W 117°24'0 0.0
2018-Jun-14 04:00N 33°12' W 117°24'0 0.0
2018-Jun-14 03:30N 33°12' W 117°24'0 0.0
2018-Jun-14 03:00N 33°12' W 117°24'0 0.0
2018-Jun-14 02:30N 33°12' W 117°24'0 0.0
2018-Jun-14 02:00N 33°12' W 117°24'0 0.0
2018-Jun-14 01:30N 33°12' W 117°24'0 0.0
2018-Jun-14 01:01N 33°12' W 117°24'0 0.0
2018-Jun-14 00:30N 33°12' W 117°24'0 0.0
2018-Jun-14 00:00N 33°12' W 117°24'0 0.0
2018-Jun-13 23:30N 33°12' W 117°24'0 0.0
2018-Jun-13 23:00N 33°12' W 117°24'0 0.0
2018-Jun-13 22:31N 33°12' W 117°24'0 0.0
2018-Jun-13 22:01N 33°12' W 117°24'0 0.0
2018-Jun-13 21:31N 33°12' W 117°24'0 0.0
2018-Jun-13 21:01N 33°12' W 117°24'0 0.0
2018-Jun-13 20:30N 33°12' W 117°24'0 0.0
2018-Jun-13 20:00N 33°12' W 117°24'0 0.0
2018-Jun-13 19:30N 33°12' W 117°24'0 0.0
2018-Jun-13 19:00N 33°12' W 117°24'0 0.0
2018-Jun-13 18:31N 33°12' W 117°24'0 0.0
2018-Jun-13 18:00N 33°12' W 117°24'0 0.0
2018-Jun-13 17:30N 33°12' W 117°24'0 0.0
2018-Jun-13 17:00N 33°12' W 117°24'0 0.0
2018-Jun-13 16:30N 33°12' W 117°24'0 0.0
2018-Jun-13 16:00N 33°12' W 117°24'0 0.0
2018-Jun-13 15:31N 33°12' W 117°24'0 0.0
2018-Jun-13 15:00N 33°12' W 117°24'0 0.0
2018-Jun-13 14:31N 33°12' W 117°24'0 0.0
2018-Jun-13 14:00N 33°12' W 117°24'0 0.0
2018-Jun-13 13:31N 33°12' W 117°24'0 0.0
2018-Jun-13 13:00N 33°12' W 117°24'0 0.0
2018-Jun-13 12:31N 33°12' W 117°24'0 0.0
2018-Jun-13 12:00N 33°12' W 117°24'0 0.0
2018-Jun-13 11:31N 33°12' W 117°24'0 0.0
2018-Jun-13 11:00N 33°12' W 117°24'0 0.0
2018-Jun-13 10:30N 33°12' W 117°24'0 0.0
2018-Jun-13 10:00N 33°12' W 117°24'0 0.0
2018-Jun-13 09:31N 33°12' W 117°24'0 0.0
2018-Jun-13 09:01N 33°12' W 117°24'0 0.0
2018-Jun-13 08:31N 33°12' W 117°24'0 0.0
2018-Jun-13 08:00N 33°12' W 117°24'0 0.0
2018-Jun-13 07:31N 33°12' W 117°24'0 0.0
2018-Jun-13 07:00N 33°12' W 117°24'0 0.0
2018-Jun-13 06:31N 33°12' W 117°24'0 0.0
2018-Jun-13 06:01N 33°12' W 117°24'0 0.0
2018-Jun-13 05:30N 33°12' W 117°24'0 0.0
2018-Jun-13 05:00N 33°12' W 117°24'0 0.0
2018-Jun-13 04:31N 33°12' W 117°24'0 0.0
2018-Jun-13 04:00N 33°12' W 117°24'0 0.0
2018-Jun-13 03:30N 33°12' W 117°24'0 0.0
2018-Jun-13 03:00N 33°12' W 117°24'0 0.0
2018-Jun-13 02:30N 33°12' W 117°24'0 0.0
2018-Jun-13 02:00N 33°12' W 117°24'0 0.0
2018-Jun-13 01:31N 33°12' W 117°24'0 0.0
2018-Jun-13 01:00N 33°12' W 117°24'0 0.0
2018-Jun-13 00:30N 33°12' W 117°24'0 0.0
2018-Jun-13 00:00N 33°12' W 117°24'0 0.0
2018-Jun-12 23:30N 33°12' W 117°24'0 0.0
2018-Jun-12 23:00N 33°12' W 117°24'0 0.0
2018-Jun-12 22:31N 33°12' W 117°24'0 0.0
2018-Jun-12 22:00N 33°12' W 117°24'0 0.0
2018-Jun-12 21:31N 33°12' W 117°24'0 0.0
2018-Jun-12 21:01N 33°12' W 117°24'0 0.0
2018-Jun-12 20:31N 33°12' W 117°24'0 0.0
2018-Jun-12 20:01N 33°12' W 117°24'0 0.0
2018-Jun-12 19:30N 33°12' W 117°24'0 0.0
2018-Jun-12 19:01N 33°12' W 117°24'0 0.0
2018-Jun-12 18:29N 33°12' W 117°24'0 0.0
2018-Jun-12 18:01N 33°12' W 117°24'0 0.0
2018-Jun-12 17:30N 33°12' W 117°24'0 0.0
2018-Jun-12 17:00N 33°12' W 117°24'0 0.0
2018-Jun-12 16:31N 33°12' W 117°24'0 0.0
2018-Jun-12 16:01N 33°12' W 117°24'0 0.0
2018-Jun-12 15:31N 33°12' W 117°24'0 0.0
2018-Jun-12 15:01N 33°12' W 117°24'0 0.0
2018-Jun-12 14:31N 33°12' W 117°24'0 0.0
2018-Jun-12 14:01N 33°12' W 117°24'0 0.0
2018-Jun-12 13:31N 33°12' W 117°24'0 0.0
2018-Jun-12 13:00N 33°12' W 117°24'0 0.0
2018-Jun-12 12:30N 33°12' W 117°24'0 0.0
2018-Jun-12 12:01N 33°12' W 117°24'0 0.0
2018-Jun-12 11:31N 33°12' W 117°24'0 0.0
2018-Jun-12 11:00N 33°12' W 117°24'0 0.0
2018-Jun-12 10:31N 33°12' W 117°24'0 0.0
2018-Jun-12 10:00N 33°12' W 117°24'0 0.0
2018-Jun-12 09:30N 33°12' W 117°24'0 0.0
2018-Jun-12 09:00N 33°12' W 117°24'0 0.0
2018-Jun-12 08:30N 33°12' W 117°24'0 0.0
2018-Jun-12 08:00N 33°12' W 117°24'0 0.0
2018-Jun-12 07:31N 33°12' W 117°24'0 0.0
2018-Jun-12 07:00N 33°12' W 117°24'0 0.0
2018-Jun-12 06:31N 33°12' W 117°24'0 0.0
2018-Jun-12 06:00N 33°12' W 117°24'0 0.0
2018-Jun-12 05:30N 33°12' W 117°24'0 0.0
2018-Jun-12 05:00N 33°12' W 117°24'0 0.0
2018-Jun-12 04:31N 33°12' W 117°24'0 0.0
2018-Jun-12 04:00N 33°12' W 117°24'0 0.0
2018-Jun-12 03:30N 33°12' W 117°24'0 0.0
2018-Jun-12 03:00N 33°12' W 117°24'0 0.0
2018-Jun-12 02:30N 33°12' W 117°24'0 0.0
2018-Jun-12 02:01N 33°12' W 117°24'0 0.0
2018-Jun-12 01:30N 33°12' W 117°24'0 0.0
2018-Jun-12 01:01N 33°12' W 117°24'0 0.0
2018-Jun-12 00:30N 33°12' W 117°24'0 0.0
2018-Jun-12 00:01N 33°12' W 117°24'0 0.0
2018-Jun-11 23:31N 33°12' W 117°24'0 0.0
2018-Jun-11 23:00N 33°12' W 117°24'1 2.3
2018-Jun-11 22:31N 33°11' W 117°24'510.0
2018-Jun-11 22:00N 33°07' W 117°21'4 7.0
2018-Jun-11 21:30N 33°04' W 117°19'0 0.1
2018-Jun-11 21:00N 33°04' W 117°19'0 0.4
2018-Jun-11 20:31N 33°04' W 117°19'0 0.0
2018-Jun-11 20:00N 33°04' W 117°19'0 0.0
2018-Jun-11 19:30N 33°04' W 117°19'0 0.0
2018-Jun-11 19:00N 33°04' W 117°19'2 3.4
2018-Jun-11 18:30N 33°05' W 117°20'5 9.6
2018-Jun-11 18:01N 33°09' W 117°23'3 6.0
2018-Jun-11 17:29N 33°12' W 117°23'0 0.5
2018-Jun-11 17:00N 33°12' W 117°24'0 0.0
2018-Jun-11 16:30N 33°12' W 117°24'0 0.0
2018-Jun-11 16:00N 33°12' W 117°24'0 0.0
2018-Jun-11 15:30N 33°12' W 117°24'0 0.0
2018-Jun-11 15:00N 33°12' W 117°24'0 0.0
2018-Jun-11 14:30N 33°12' W 117°24'0 0.0
2018-Jun-11 14:00N 33°12' W 117°24'0 0.0
2018-Jun-11 13:30N 33°12' W 117°24'0 0.0
2018-Jun-11 12:59N 33°12' W 117°24'0 0.0
2018-Jun-11 12:28N 33°12' W 117°24'0 0.0
2018-Jun-11 11:59N 33°12' W 117°24'0 0.0
2018-Jun-11 11:27N 33°12' W 117°24'0 0.0
2018-Jun-11 10:52N 33°12' W 117°24'0 0.0
2018-Jun-11 09:53N 33°12' W 117°24'0 0.0
2018-Jun-11 09:18N 33°12' W 117°24'0 0.0
2018-Jun-11 08:57N 33°12' W 117°24'0 0.0
2018-Jun-11 08:18N 33°12' W 117°24'0 0.0
2018-Jun-11 07:58N 33°12' W 117°24'0 0.0
2018-Jun-11 07:23N 33°12' W 117°24'0 0.0
2018-Jun-11 06:59N 33°12' W 117°24'0 0.0
2018-Jun-11 06:29N 33°12' W 117°24'0 0.0
2018-Jun-11 06:00N 33°12' W 117°24'0 0.0
2018-Jun-11 05:29N 33°12' W 117°24'0 0.0
2018-Jun-11 05:01N 33°12' W 117°24'0 0.0
2018-Jun-11 04:29N 33°12' W 117°24'0 0.0
2018-Jun-11 03:57N 33°12' W 117°24'0 0.0
2018-Jun-11 03:30N 33°12' W 117°24'0 0.0
2018-Jun-11 02:55N 33°12' W 117°24'0 0.0
2018-Jun-11 02:30N 33°12' W 117°24'0 0.0
2018-Jun-11 01:58N 33°12' W 117°24'0 0.0
2018-Jun-11 01:29N 33°12' W 117°24'0 0.0
2018-Jun-11 01:00N 33°12' W 117°24'0 0.0
2018-Jun-11 00:30N 33°12' W 117°24'0 0.0
2018-Jun-11 00:00N 33°12' W 117°24'0 0.0
2018-Jun-10 23:30N 33°12' W 117°24'0 0.0
2018-Jun-10 23:00N 33°12' W 117°24'0 0.0
2018-Jun-10 22:29N 33°12' W 117°24'0 0.0
2018-Jun-10 22:00N 33°12' W 117°24'0 0.0
2018-Jun-10 21:29N 33°12' W 117°24'0 0.0
2018-Jun-10 20:59N 33°12' W 117°24'0 0.0
2018-Jun-10 20:30N 33°12' W 117°24'0 0.0
2018-Jun-10 20:00N 33°12' W 117°24'0 0.0
2018-Jun-10 19:30N 33°12' W 117°24'0 0.0
2018-Jun-10 19:00N 33°12' W 117°24'0 0.0
2018-Jun-10 18:31N 33°12' W 117°24'0 0.0
2018-Jun-10 17:54N 33°12' W 117°24'0 0.0
2018-Jun-10 17:24N 33°12' W 117°24'0 0.0
2018-Jun-10 17:00N 33°12' W 117°24'0 0.0
2018-Jun-10 16:26N 33°12' W 117°24'0 0.0
2018-Jun-10 15:58N 33°12' W 117°24'0 0.0
2018-Jun-10 15:27N 33°12' W 117°24'0 0.0
2018-Jun-10 14:57N 33°12' W 117°24'0 0.0
2018-Jun-10 13:50N 33°12' W 117°24'0 0.0
2018-Jun-10 13:30N 33°12' W 117°24'0 0.0
2018-Jun-10 12:57N 33°12' W 117°24'0 0.0
2018-Jun-10 12:09N 33°12' W 117°24'0 0.0
2018-Jun-10 06:32N 33°12' W 117°24'0 0.0
2018-Jun-10 06:30N 33°12' W 117°24'0 0.0
2018-Jun-10 05:38N 33°12' W 117°24'0 0.0
2018-Jun-10 05:24N 33°12' W 117°24'0 0.0
2018-Jun-10 04:51N 33°12' W 117°24'0 0.0
2018-Jun-10 04:30N 33°12' W 117°24'0 0.0
2018-Jun-10 03:59N 33°12' W 117°24'0 0.0
2018-Jun-10 03:30N 33°12' W 117°24'0 0.0
2018-Jun-10 02:58N 33°12' W 117°24'0 0.0
2018-Jun-10 02:28N 33°12' W 117°24'0 0.0
2018-Jun-10 02:00N 33°12' W 117°24'0 0.0
2018-Jun-10 01:30N 33°12' W 117°24'0 0.0
2018-Jun-10 01:00N 33°12' W 117°24'0 0.0
2018-Jun-10 00:30N 33°12' W 117°24'0 0.0
2018-Jun-10 00:00N 33°12' W 117°24'0 0.0
2018-Jun-09 23:30N 33°12' W 117°24'0 0.0
2018-Jun-09 23:00N 33°12' W 117°24'0 0.0
2018-Jun-09 22:31N 33°12' W 117°24'0 0.0
2018-Jun-09 21:59N 33°12' W 117°24'0 0.0
2018-Jun-09 21:27N 33°12' W 117°24'0 0.0
2018-Jun-09 20:59N 33°12' W 117°24'0 0.0
2018-Jun-09 20:30N 33°12' W 117°24'0 0.0
2018-Jun-09 19:56N 33°12' W 117°24'0 0.0
2018-Jun-09 19:30N 33°12' W 117°24'0 0.0
2018-Jun-09 19:00N 33°12' W 117°24'0 0.0
2018-Jun-09 18:27N 33°12' W 117°24'0 0.0
2018-Jun-09 17:59N 33°12' W 117°24'  
Track history (hours):
 
Tides and Currents Weather Stations Pressure Air Temp Water Temp Dewpoint Dewpoint Depression Visibility Wind Speed Wind Dir Waves Ship Positions

Oceanside 95

Owner: HELGRENS OCEANSIDE SPORTFISHING TRIPS IN, OCEANSIDE, CA. More information available from US FCC via Universal Licensing System and Coast Guard Vessel Documentation Center.

Last reported at 2018-Jun-19 17:30 UTC. Time now 2018-Jun-19 17:45 UTC.
Position N 33°11' W 117°23'.

Type: Wing in ground effect craft. MMSI: 367150450.

Date/timePositionNaut miles runAvg speedWind from/ knotsBaromVisibWave heightAir tempDewpointWater temp
2018-Jun-19 17:30N 33°11' W 117°23'1 1.2
2018-Jun-19 16:31N 33°12' W 117°23'0 1.8
2018-Jun-19 16:27N 33°12' W 117°24'0 0.3
2018-Jun-19 15:59N 33°12' W 117°24'0 0.0
2018-Jun-19 15:26N 33°12' W 117°24'0 0.0
2018-Jun-19 12:02N 33°12' W 117°24'0 0.0
2018-Jun-19 11:47N 33°12' W 117°24'0 0.0
2018-Jun-19 11:30N 33°12' W 117°24'0 0.0
2018-Jun-19 11:00N 33°12' W 117°24'0 0.0
2018-Jun-19 10:29N 33°12' W 117°24'0 0.0
2018-Jun-19 09:57N 33°12' W 117°24'0 0.0
2018-Jun-19 09:30N 33°12' W 117°24'0 0.0
2018-Jun-19 09:00N 33°12' W 117°24'0 0.0
2018-Jun-19 08:27N 33°12' W 117°24'0 0.0
2018-Jun-19 07:59N 33°12' W 117°24'0 0.0
2018-Jun-19 07:30N 33°12' W 117°24'0 0.0
2018-Jun-19 06:59N 33°12' W 117°24'0 0.0
2018-Jun-19 06:30N 33°12' W 117°24'0 0.0
2018-Jun-19 05:51N 33°12' W 117°24'0 0.0
2018-Jun-19 05:30N 33°12' W 117°24'0 0.0
2018-Jun-19 04:54N 33°12' W 117°24'0 0.0
2018-Jun-19 04:30N 33°12' W 117°24'0 0.0
2018-Jun-19 03:59N 33°12' W 117°24'0 0.0
2018-Jun-19 03:21N 33°12' W 117°24'0 0.0
2018-Jun-19 02:57N 33°12' W 117°24'0 0.0
2018-Jun-19 02:29N 33°12' W 117°24'0 0.0
2018-Jun-19 02:00N 33°12' W 117°24'0 0.0
2018-Jun-19 01:30N 33°12' W 117°24'0 0.0
2018-Jun-19 01:00N 33°12' W 117°24'0 0.0
2018-Jun-19 00:30N 33°12' W 117°24'0 0.0
2018-Jun-19 00:00N 33°12' W 117°24'0 0.0
2018-Jun-18 23:30N 33°12' W 117°24'0 0.0
2018-Jun-18 23:00N 33°12' W 117°24'0 0.0
2018-Jun-18 22:27N 33°12' W 117°24'0 0.0
2018-Jun-18 22:00N 33°12' W 117°24'0 0.0
2018-Jun-18 21:30N 33°12' W 117°24'0 0.0
2018-Jun-18 21:00N 33°12' W 117°24'0 0.0
2018-Jun-18 20:30N 33°12' W 117°24'0 0.0
2018-Jun-18 20:00N 33°12' W 117°24'0 0.0
2018-Jun-18 19:30N 33°12' W 117°24'0 0.0
2018-Jun-18 19:00N 33°12' W 117°24'0 0.0
2018-Jun-18 17:06N 33°12' W 117°24'0 0.0
2018-Jun-18 17:00N 33°12' W 117°24'0 0.0
2018-Jun-18 16:21N 33°12' W 117°24'0 0.0
2018-Jun-18 15:52N 33°12' W 117°24'0 0.0
2018-Jun-18 15:30N 33°12' W 117°24'0 0.0
2018-Jun-18 11:57N 33°12' W 117°24'0 0.0
2018-Jun-18 11:24N 33°12' W 117°24'0 0.0
2018-Jun-18 10:51N 33°12' W 117°24'0 0.0
2018-Jun-18 10:26N 33°12' W 117°24'0 0.0
2018-Jun-18 10:00N 33°12' W 117°24'0 0.0
2018-Jun-18 09:28N 33°12' W 117°24'0 0.0
2018-Jun-18 08:59N 33°12' W 117°24'0 0.0
2018-Jun-18 08:29N 33°12' W 117°24'0 0.0
2018-Jun-18 08:00N 33°12' W 117°24'0 0.0
2018-Jun-18 07:30N 33°12' W 117°24'0 0.0
2018-Jun-18 07:00N 33°12' W 117°24'0 0.0
2018-Jun-18 06:30N 33°12' W 117°24'0 0.0
2018-Jun-18 05:57N 33°12' W 117°24'0 0.0
2018-Jun-18 05:30N 33°12' W 117°24'0 0.0
2018-Jun-18 04:53N 33°12' W 117°24'0 0.0
2018-Jun-18 04:16N 33°12' W 117°24'0 0.0
2018-Jun-18 03:59N 33°12' W 117°24'0 0.0
2018-Jun-18 03:26N 33°12' W 117°24'0 0.0
2018-Jun-18 03:00N 33°12' W 117°24'0 0.0
2018-Jun-18 02:29N 33°12' W 117°24'0 0.0
2018-Jun-18 01:52N 33°12' W 117°24'0 0.0
2018-Jun-18 01:29N 33°12' W 117°24'0 0.0
2018-Jun-18 01:00N 33°12' W 117°24'0 0.0
2018-Jun-17 23:45N 33°12' W 117°24'0 0.6
2018-Jun-17 23:24N 33°12' W 117°23'2 5.6
2018-Jun-17 23:00N 33°10' W 117°23'5 9.8
2018-Jun-17 22:30N 33°06' W 117°20'3 5.2
2018-Jun-17 22:00N 33°03' W 117°19'0 0.0
2018-Jun-17 21:30N 33°03' W 117°19'0 0.6
2018-Jun-17 21:00N 33°04' W 117°19'0 0.0
2018-Jun-17 20:30N 33°04' W 117°19'0 0.0
2018-Jun-17 20:00N 33°04' W 117°19'0 0.0
2018-Jun-17 19:30N 33°04' W 117°19'3 5.3
2018-Jun-17 19:00N 33°06' W 117°21'4 8.5
2018-Jun-17 18:30N 33°10' W 117°23'3 2.9
2018-Jun-17 17:34N 33°12' W 117°23'0 1.6
2018-Jun-17 17:30N 33°12' W 117°24'0 0.0
2018-Jun-17 13:51N 33°12' W 117°24'0 0.4
2018-Jun-17 13:22N 33°12' W 117°23'0 0.0
2018-Jun-17 12:53N 33°12' W 117°23'0 1.2
2018-Jun-17 12:30N 33°12' W 117°24'4 8.2
2018-Jun-17 12:00N 33°09' W 117°25'4 8.0
2018-Jun-17 11:30N 33°05' W 117°27'4 8.0
2018-Jun-17 11:00N 33°01' W 117°29'4 7.9
2018-Jun-17 10:30N 32°58' W 117°31'4 7.8
2018-Jun-17 10:00N 32°54' W 117°33'4 7.3
2018-Jun-17 09:30N 32°51' W 117°35'4 7.0
2018-Jun-17 09:00N 32°48' W 117°37'4 7.0
2018-Jun-17 08:30N 32°45' W 117°39'4 6.9
2018-Jun-17 08:00N 32°42' W 117°41'3 6.9
2018-Jun-17 07:30N 32°38' W 117°42'8 7.1
2018-Jun-17 06:24N 32°31' W 117°45'11 7.2
2018-Jun-17 04:53N 32°21' W 117°50'3 7.1
2018-Jun-17 04:25N 32°18' W 117°52'4 2.7
2018-Jun-17 02:51N 32°15' W 117°55'1 2.0
2018-Jun-17 02:25N 32°14' W 117°54'4 1.7
2018-Jun-17 00:18N 32°17' W 117°51'1 1.6
2018-Jun-16 23:57N 32°17' W 117°51'0 0.7
2018-Jun-16 23:28N 32°16' W 117°50'0 0.3
2018-Jun-16 22:51N 32°17' W 117°50'8 2.7
2018-Jun-16 19:44N 32°16' W 117°40'7 4.3
2018-Jun-16 18:08N 32°23' W 117°39'1 5.2
2018-Jun-16 17:56N 32°23' W 117°41'4 3.5
2018-Jun-16 16:41N 32°27' W 117°42'1 1.3
2018-Jun-16 15:46N 32°27' W 117°40'1 3.0
2018-Jun-16 15:30N 32°27' W 117°41'6 3.9
2018-Jun-16 13:56N 32°21' W 117°40'11 2.0
2018-Jun-16 08:40N 32°32' W 117°38'2 6.9
2018-Jun-16 08:23N 32°34' W 117°38'3 6.8
2018-Jun-16 08:00N 32°36' W 117°37'4 7.5
2018-Jun-16 07:30N 32°40' W 117°35'4 7.7
2018-Jun-16 07:00N 32°43' W 117°34'4 7.7
2018-Jun-16 06:30N 32°47' W 117°32'4 8.1
2018-Jun-16 06:00N 32°51' W 117°31'5 9.7
2018-Jun-16 05:30N 32°55' W 117°29'5 9.7
2018-Jun-16 05:00N 33°00' W 117°28'5 9.8
2018-Jun-16 04:30N 33°05' W 117°27'5 9.3
2018-Jun-16 04:00N 33°09' W 117°25'3 6.8
2018-Jun-16 03:30N 33°12' W 117°24'0 0.1
2018-Jun-15 23:34N 33°12' W 117°23'0 0.0
2018-Jun-15 23:30N 33°12' W 117°23'0 0.4
2018-Jun-15 23:00N 33°12' W 117°24'0 0.0
2018-Jun-15 22:30N 33°12' W 117°24'0 0.0
2018-Jun-15 22:00N 33°12' W 117°24'0 0.0
2018-Jun-15 21:30N 33°12' W 117°24'0 0.0
2018-Jun-15 21:00N 33°12' W 117°24'0 0.0
2018-Jun-15 20:30N 33°12' W 117°24'0 0.0
2018-Jun-15 20:00N 33°12' W 117°24'0 0.0
2018-Jun-15 19:30N 33°12' W 117°24'0 0.0
2018-Jun-15 19:00N 33°12' W 117°24'0 0.0
2018-Jun-15 18:30N 33°12' W 117°24'0 0.0
2018-Jun-15 18:00N 33°12' W 117°24'0 0.0
2018-Jun-15 17:29N 33°12' W 117°24'0 0.0
2018-Jun-15 17:00N 33°12' W 117°24'0 0.0
2018-Jun-15 16:30N 33°12' W 117°24'0 0.0
2018-Jun-15 16:00N 33°12' W 117°24'0 0.0
2018-Jun-15 15:30N 33°12' W 117°24'0 0.0
2018-Jun-15 15:00N 33°12' W 117°24'0 0.0
2018-Jun-15 14:30N 33°12' W 117°24'0 0.0
2018-Jun-15 14:00N 33°12' W 117°24'0 0.0
2018-Jun-15 13:30N 33°12' W 117°24'0 0.0
2018-Jun-15 13:00N 33°12' W 117°24'0 0.0
2018-Jun-15 12:30N 33°12' W 117°24'0 0.0
2018-Jun-15 12:00N 33°12' W 117°24'0 0.0
2018-Jun-15 11:30N 33°12' W 117°24'0 0.0
2018-Jun-15 11:00N 33°12' W 117°24'0 0.0
2018-Jun-15 10:30N 33°12' W 117°24'0 0.0
2018-Jun-15 10:00N 33°12' W 117°24'0 0.0
2018-Jun-15 09:30N 33°12' W 117°24'0 0.0
2018-Jun-15 09:00N 33°12' W 117°24'0 0.0
2018-Jun-15 08:30N 33°12' W 117°24'0 0.0
2018-Jun-15 08:00N 33°12' W 117°24'0 0.0
2018-Jun-15 07:30N 33°12' W 117°24'0 0.0
2018-Jun-15 07:00N 33°12' W 117°24'0 0.0
2018-Jun-15 06:30N 33°12' W 117°24'0 0.0
2018-Jun-15 06:00N 33°12' W 117°24'0 0.0
2018-Jun-15 05:30N 33°12' W 117°24'0 0.0
2018-Jun-15 05:00N 33°12' W 117°24'0 0.0
2018-Jun-15 04:30N 33°12' W 117°24'0 0.0
2018-Jun-15 04:00N 33°12' W 117°24'0 0.0
2018-Jun-15 03:30N 33°12' W 117°24'0 0.0
2018-Jun-15 03:01N 33°12' W 117°24'0 0.0
2018-Jun-15 02:30N 33°12' W 117°24'0 0.0
2018-Jun-15 02:00N 33°12' W 117°24'0 0.0
2018-Jun-15 01:30N 33°12' W 117°24'0 0.0
2018-Jun-15 01:00N 33°12' W 117°24'0 0.0
2018-Jun-15 00:30N 33°12' W 117°24'0 0.0
2018-Jun-15 00:00N 33°12' W 117°24'0 0.0
2018-Jun-14 23:30N 33°12' W 117°24'0 0.0
2018-Jun-14 23:00N 33°12' W 117°24'0 0.0
2018-Jun-14 22:31N 33°12' W 117°24'0 0.0
2018-Jun-14 22:00N 33°12' W 117°24'0 0.0
2018-Jun-14 21:30N 33°12' W 117°24'0 0.0
2018-Jun-14 21:00N 33°12' W 117°24'0 0.0
2018-Jun-14 20:30N 33°12' W 117°24'0 0.0
2018-Jun-14 20:00N 33°12' W 117°24'0 0.0
2018-Jun-14 19:30N 33°12' W 117°24'0 0.0
2018-Jun-14 19:00N 33°12' W 117°24'0 0.0
2018-Jun-14 18:31N 33°12' W 117°24'0 0.0
2018-Jun-14 18:00N 33°12' W 117°24'0 0.0
2018-Jun-14 17:30N 33°12' W 117°24'0 0.0
2018-Jun-14 17:01N 33°12' W 117°24'0 0.0
2018-Jun-14 16:30N 33°12' W 117°24'0 0.0
2018-Jun-14 16:00N 33°12' W 117°24'0 0.0
2018-Jun-14 15:31N 33°12' W 117°24'0 0.0
2018-Jun-14 15:00N 33°12' W 117°24'0 0.0
2018-Jun-14 14:30N 33°12' W 117°24'0 0.0
2018-Jun-14 14:00N 33°12' W 117°24'0 0.0
2018-Jun-14 13:31N 33°12' W 117°24'0 0.0
2018-Jun-14 13:00N 33°12' W 117°24'0 0.0
2018-Jun-14 12:30N 33°12' W 117°24'0 0.0
2018-Jun-14 12:00N 33°12' W 117°24'0 0.0
2018-Jun-14 11:31N 33°12' W 117°24'0 0.0
2018-Jun-14 11:00N 33°12' W 117°24'0 0.0
2018-Jun-14 10:30N 33°12' W 117°24'0 0.0
2018-Jun-14 10:00N 33°12' W 117°24'0 0.0
2018-Jun-14 09:31N 33°12' W 117°24'0 0.0
2018-Jun-14 09:01N 33°12' W 117°24'0 0.0
2018-Jun-14 08:30N 33°12' W 117°24'0 0.0
2018-Jun-14 08:01N 33°12' W 117°24'0 0.0
2018-Jun-14 07:31N 33°12' W 117°24'0 0.0
2018-Jun-14 07:00N 33°12' W 117°24'0 0.0
2018-Jun-14 06:30N 33°12' W 117°24'0 0.0
2018-Jun-14 06:00N 33°12' W 117°24'0 0.0
2018-Jun-14 05:30N 33°12' W 117°24'0 0.0
2018-Jun-14 05:00N 33°12' W 117°24'0 0.0
2018-Jun-14 04:30N 33°12' W 117°24'0 0.0
2018-Jun-14 04:00N 33°12' W 117°24'0 0.0
2018-Jun-14 03:30N 33°12' W 117°24'0 0.0
2018-Jun-14 03:00N 33°12' W 117°24'0 0.0
2018-Jun-14 02:30N 33°12' W 117°24'0 0.0
2018-Jun-14 02:00N 33°12' W 117°24'0 0.0
2018-Jun-14 01:30N 33°12' W 117°24'0 0.0
2018-Jun-14 01:01N 33°12' W 117°24'0 0.0
2018-Jun-14 00:30N 33°12' W 117°24'0 0.0
2018-Jun-14 00:00N 33°12' W 117°24'0 0.0
2018-Jun-13 23:30N 33°12' W 117°24'0 0.0
2018-Jun-13 23:00N 33°12' W 117°24'0 0.0
2018-Jun-13 22:31N 33°12' W 117°24'0 0.0
2018-Jun-13 22:01N 33°12' W 117°24'0 0.0
2018-Jun-13 21:31N 33°12' W 117°24'0 0.0
2018-Jun-13 21:01N 33°12' W 117°24'0 0.0
2018-Jun-13 20:30N 33°12' W 117°24'0 0.0
2018-Jun-13 20:00N 33°12' W 117°24'0 0.0
2018-Jun-13 19:30N 33°12' W 117°24'0 0.0
2018-Jun-13 19:00N 33°12' W 117°24'0 0.0
2018-Jun-13 18:31N 33°12' W 117°24'0 0.0
2018-Jun-13 18:00N 33°12' W 117°24'0 0.0
2018-Jun-13 17:30N 33°12' W 117°24'0 0.0
2018-Jun-13 17:00N 33°12' W 117°24'0 0.0
2018-Jun-13 16:30N 33°12' W 117°24'0 0.0
2018-Jun-13 16:00N 33°12' W 117°24'0 0.0
2018-Jun-13 15:31N 33°12' W 117°24'0 0.0
2018-Jun-13 15:00N 33°12' W 117°24'0 0.0
2018-Jun-13 14:31N 33°12' W 117°24'0 0.0
2018-Jun-13 14:00N 33°12' W 117°24'0 0.0
2018-Jun-13 13:31N 33°12' W 117°24'0 0.0
2018-Jun-13 13:00N 33°12' W 117°24'0 0.0
2018-Jun-13 12:31N 33°12' W 117°24'0 0.0
2018-Jun-13 12:00N 33°12' W 117°24'0 0.0
2018-Jun-13 11:31N 33°12' W 117°24'0 0.0
2018-Jun-13 11:00N 33°12' W 117°24'0 0.0
2018-Jun-13 10:30N 33°12' W 117°24'0 0.0
2018-Jun-13 10:00N 33°12' W 117°24'0 0.0
2018-Jun-13 09:31N 33°12' W 117°24'0 0.0
2018-Jun-13 09:01N 33°12' W 117°24'0 0.0
2018-Jun-13 08:31N 33°12' W 117°24'0 0.0
2018-Jun-13 08:00N 33°12' W 117°24'0 0.0
2018-Jun-13 07:31N 33°12' W 117°24'0 0.0
2018-Jun-13 07:00N 33°12' W 117°24'0 0.0
2018-Jun-13 06:31N 33°12' W 117°24'0 0.0
2018-Jun-13 06:01N 33°12' W 117°24'0 0.0
2018-Jun-13 05:30N 33°12' W 117°24'0 0.0
2018-Jun-13 05:00N 33°12' W 117°24'0 0.0
2018-Jun-13 04:31N 33°12' W 117°24'0 0.0
2018-Jun-13 04:00N 33°12' W 117°24'0 0.0
2018-Jun-13 03:30N 33°12' W 117°24'0 0.0
2018-Jun-13 03:00N 33°12' W 117°24'0 0.0
2018-Jun-13 02:30N 33°12' W 117°24'0 0.0
2018-Jun-13 02:00N 33°12' W 117°24'0 0.0
2018-Jun-13 01:31N 33°12' W 117°24'0 0.0
2018-Jun-13 01:00N 33°12' W 117°24'0 0.0
2018-Jun-13 00:30N 33°12' W 117°24'0 0.0
2018-Jun-13 00:00N 33°12' W 117°24'0 0.0
2018-Jun-12 23:30N 33°12' W 117°24'0 0.0
2018-Jun-12 23:00N 33°12' W 117°24'0 0.0
2018-Jun-12 22:31N 33°12' W 117°24'0 0.0
2018-Jun-12 22:00N 33°12' W 117°24'0 0.0
2018-Jun-12 21:31N 33°12' W 117°24'0 0.0
2018-Jun-12 21:01N 33°12' W 117°24'0 0.0
2018-Jun-12 20:31N 33°12' W 117°24'0 0.0
2018-Jun-12 20:01N 33°12' W 117°24'0 0.0
2018-Jun-12 19:30N 33°12' W 117°24'0 0.0
2018-Jun-12 19:01N 33°12' W 117°24'0 0.0
2018-Jun-12 18:29N 33°12' W 117°24'0 0.0
2018-Jun-12 18:01N 33°12' W 117°24'0 0.0
2018-Jun-12 17:30N 33°12' W 117°24'0 0.0
2018-Jun-12 17:00N 33°12' W 117°24'0 0.0
2018-Jun-12 16:31N 33°12' W 117°24'0 0.0
2018-Jun-12 16:01N 33°12' W 117°24'0 0.0
2018-Jun-12 15:31N 33°12' W 117°24'0 0.0
2018-Jun-12 15:01N 33°12' W 117°24'0 0.0
2018-Jun-12 14:31N 33°12' W 117°24'0 0.0
2018-Jun-12 14:01N 33°12' W 117°24'0 0.0
2018-Jun-12 13:31N 33°12' W 117°24'0 0.0
2018-Jun-12 13:00N 33°12' W 117°24'0 0.0
2018-Jun-12 12:30N 33°12' W 117°24'0 0.0
2018-Jun-12 12:01N 33°12' W 117°24'0 0.0
2018-Jun-12 11:31N 33°12' W 117°24'0 0.0
2018-Jun-12 11:00N 33°12' W 117°24'0 0.0
2018-Jun-12 10:31N 33°12' W 117°24'0 0.0
2018-Jun-12 10:00N 33°12' W 117°24'0 0.0
2018-Jun-12 09:30N 33°12' W 117°24'0 0.0
2018-Jun-12 09:00N 33°12' W 117°24'0 0.0
2018-Jun-12 08:30N 33°12' W 117°24'0 0.0
2018-Jun-12 08:00N 33°12' W 117°24'0 0.0
2018-Jun-12 07:31N 33°12' W 117°24'0 0.0
2018-Jun-12 07:00N 33°12' W 117°24'0 0.0
2018-Jun-12 06:31N 33°12' W 117°24'0 0.0
2018-Jun-12 06:00N 33°12' W 117°24'0 0.0
2018-Jun-12 05:30N 33°12' W 117°24'0 0.0
2018-Jun-12 05:00N 33°12' W 117°24'0 0.0
2018-Jun-12 04:31N 33°12' W 117°24'0 0.0
2018-Jun-12 04:00N 33°12' W 117°24'0 0.0
2018-Jun-12 03:30N 33°12' W 117°24'0 0.0
2018-Jun-12 03:00N 33°12' W 117°24'0 0.0
2018-Jun-12 02:30N 33°12' W 117°24'0 0.0
2018-Jun-12 02:01N 33°12' W 117°24'0 0.0
2018-Jun-12 01:30N 33°12' W 117°24'0 0.0
2018-Jun-12 01:01N 33°12' W 117°24'0 0.0
2018-Jun-12 00:30N 33°12' W 117°24'0 0.0
2018-Jun-12 00:01N 33°12' W 117°24'0 0.0
2018-Jun-11 23:31N 33°12' W 117°24'0 0.0
2018-Jun-11 23:00N 33°12' W 117°24'1 2.3
2018-Jun-11 22:31N 33°11' W 117°24'510.0
2018-Jun-11 22:00N 33°07' W 117°21'4 7.0
2018-Jun-11 21:30N 33°04' W 117°19'0 0.1
2018-Jun-11 21:00N 33°04' W 117°19'0 0.4
2018-Jun-11 20:31N 33°04' W 117°19'0 0.0
2018-Jun-11 20:00N 33°04' W 117°19'0 0.0
2018-Jun-11 19:30N 33°04' W 117°19'0 0.0
2018-Jun-11 19:00N 33°04' W 117°19'2 3.4
2018-Jun-11 18:30N 33°05' W 117°20'5 9.6
2018-Jun-11 18:01N 33°09' W 117°23'3 6.0
2018-Jun-11 17:29N 33°12' W 117°23'0 0.5
2018-Jun-11 17:00N 33°12' W 117°24'0 0.0
2018-Jun-11 16:30N 33°12' W 117°24'0 0.0
2018-Jun-11 16:00N 33°12' W 117°24'0 0.0
2018-Jun-11 15:30N 33°12' W 117°24'0 0.0
2018-Jun-11 15:00N 33°12' W 117°24'0 0.0
2018-Jun-11 14:30N 33°12' W 117°24'0 0.0
2018-Jun-11 14:00N 33°12' W 117°24'0 0.0
2018-Jun-11 13:30N 33°12' W 117°24'0 0.0
2018-Jun-11 12:59N 33°12' W 117°24'0 0.0
2018-Jun-11 12:28N 33°12' W 117°24'0 0.0
2018-Jun-11 11:59N 33°12' W 117°24'0 0.0
2018-Jun-11 11:27N 33°12' W 117°24'0 0.0
2018-Jun-11 10:52N 33°12' W 117°24'0 0.0
2018-Jun-11 09:53N 33°12' W 117°24'0 0.0
2018-Jun-11 09:18N 33°12' W 117°24'0 0.0
2018-Jun-11 08:57N 33°12' W 117°24'0 0.0
2018-Jun-11 08:18N 33°12' W 117°24'0 0.0
2018-Jun-11 07:58N 33°12' W 117°24'0 0.0
2018-Jun-11 07:23N 33°12' W 117°24'0 0.0
2018-Jun-11 06:59N 33°12' W 117°24'0 0.0
2018-Jun-11 06:29N 33°12' W 117°24'0 0.0
2018-Jun-11 06:00N 33°12' W 117°24'0 0.0
2018-Jun-11 05:29N 33°12' W 117°24'0 0.0
2018-Jun-11 05:01N 33°12' W 117°24'0 0.0
2018-Jun-11 04:29N 33°12' W 117°24'0 0.0
2018-Jun-11 03:57N 33°12' W 117°24'0 0.0
2018-Jun-11 03:30N 33°12' W 117°24'0 0.0
2018-Jun-11 02:55N 33°12' W 117°24'0 0.0
2018-Jun-11 02:30N 33°12' W 117°24'0 0.0
2018-Jun-11 01:58N 33°12' W 117°24'0 0.0
2018-Jun-11 01:29N 33°12' W 117°24'0 0.0
2018-Jun-11 01:00N 33°12' W 117°24'0 0.0
2018-Jun-11 00:30N 33°12' W 117°24'0 0.0
2018-Jun-11 00:00N 33°12' W 117°24'0 0.0
2018-Jun-10 23:30N 33°12' W 117°24'0 0.0
2018-Jun-10 23:00N 33°12' W 117°24'0 0.0
2018-Jun-10 22:29N 33°12' W 117°24'0 0.0
2018-Jun-10 22:00N 33°12' W 117°24'0 0.0
2018-Jun-10 21:29N 33°12' W 117°24'0 0.0
2018-Jun-10 20:59N 33°12' W 117°24'0 0.0
2018-Jun-10 20:30N 33°12' W 117°24'0 0.0
2018-Jun-10 20:00N 33°12' W 117°24'0 0.0
2018-Jun-10 19:30N 33°12' W 117°24'0 0.0
2018-Jun-10 19:00N 33°12' W 117°24'0 0.0
2018-Jun-10 18:31N 33°12' W 117°24'0 0.0
2018-Jun-10 17:54N 33°12' W 117°24'0 0.0
2018-Jun-10 17:24N 33°12' W 117°24'0 0.0
2018-Jun-10 17:00N 33°12' W 117°24'0 0.0
2018-Jun-10 16:26N 33°12' W 117°24'0 0.0
2018-Jun-10 15:58N 33°12' W 117°24'0 0.0
2018-Jun-10 15:27N 33°12' W 117°24'0 0.0
2018-Jun-10 14:57N 33°12' W 117°24'0 0.0
2018-Jun-10 13:50N 33°12' W 117°24'0 0.0
2018-Jun-10 13:30N 33°12' W 117°24'0 0.0
2018-Jun-10 12:57N 33°12' W 117°24'0 0.0
2018-Jun-10 12:09N 33°12' W 117°24'0 0.0
2018-Jun-10 06:32N 33°12' W 117°24'0 0.0
2018-Jun-10 06:30N 33°12' W 117°24'0 0.0
2018-Jun-10 05:38N 33°12' W 117°24'0 0.0
2018-Jun-10 05:24N 33°12' W 117°24'0 0.0
2018-Jun-10 04:51N 33°12' W 117°24'0 0.0
2018-Jun-10 04:30N 33°12' W 117°24'0 0.0
2018-Jun-10 03:59N 33°12' W 117°24'0 0.0
2018-Jun-10 03:30N 33°12' W 117°24'0 0.0
2018-Jun-10 02:58N 33°12' W 117°24'0 0.0
2018-Jun-10 02:28N 33°12' W 117°24'0 0.0
2018-Jun-10 02:00N 33°12' W 117°24'0 0.0
2018-Jun-10 01:30N 33°12' W 117°24'0 0.0
2018-Jun-10 01:00N 33°12' W 117°24'0 0.0
2018-Jun-10 00:30N 33°12' W 117°24'0 0.0
2018-Jun-10 00:00N 33°12' W 117°24'0 0.0
2018-Jun-09 23:30N 33°12' W 117°24'0 0.0
2018-Jun-09 23:00N 33°12' W 117°24'0 0.0
2018-Jun-09 22:31N 33°12' W 117°24'0 0.0
2018-Jun-09 21:59N 33°12' W 117°24'0 0.0
2018-Jun-09 21:27N 33°12' W 117°24'0 0.0
2018-Jun-09 20:59N 33°12' W 117°24'0 0.0
2018-Jun-09 20:30N 33°12' W 117°24'0 0.0
2018-Jun-09 19:56N 33°12' W 117°24'0 0.0
2018-Jun-09 19:30N 33°12' W 117°24'0 0.0
2018-Jun-09 19:00N 33°12' W 117°24'0 0.0
2018-Jun-09 18:27N 33°12' W 117°24'0 0.0
2018-Jun-09 17:59N 33°12' W 117°24'  

Dump ship's entire track history